createdAt,value
2023-06-14T00:00:00.798Z,5.10
2023-06-14T00:03:13.375Z,5.30
2023-06-14T00:06:05.909Z,4.10
2023-06-14T00:08:58.242Z,5.30
2023-06-14T00:11:50.291Z,4.20
2023-06-14T00:14:42.356Z,4.20
2023-06-14T00:17:35.161Z,4.40
2023-06-14T00:20:27.538Z,4.80
2023-06-14T00:23:20.023Z,5.40
2023-06-14T00:26:12.150Z,4.60
2023-06-14T00:29:04.364Z,4.70
2023-06-14T00:31:56.420Z,4.80
2023-06-14T00:34:48.505Z,5.20
2023-06-14T00:37:40.907Z,4.70
2023-06-14T00:40:32.957Z,4.80
2023-06-14T00:43:25.027Z,4.80
2023-06-14T00:46:17.239Z,5.00
2023-06-14T00:49:09.621Z,4.50
2023-06-14T00:52:03.237Z,4.60
2023-06-14T00:54:55.588Z,4.50
2023-06-14T00:57:48.450Z,3.90
2023-06-14T01:00:40.563Z,4.10
2023-06-14T01:03:33.540Z,4.50
2023-06-14T01:06:34.447Z,4.30
2023-06-14T01:09:35.747Z,4.50
2023-06-14T01:12:38.067Z,4.30
2023-06-14T01:15:32.433Z,4.20
2023-06-14T01:21:25.116Z,4.70
2023-06-14T01:24:17.667Z,4.70
2023-06-14T01:27:10.856Z,5.30
2023-06-14T01:30:06.457Z,5.10
2023-06-14T01:33:00.192Z,5.30
2023-06-14T01:35:54.269Z,4.30
2023-06-14T01:38:47.777Z,4.80
2023-06-14T01:41:40.795Z,4.90
2023-06-14T01:44:33.727Z,4.40
2023-06-14T01:47:26.374Z,4.10
2023-06-14T01:50:18.697Z,4.20
2023-06-14T01:53:12.209Z,4.10
2023-06-14T01:56:04.695Z,3.90
2023-06-14T01:58:56.807Z,4.70
2023-06-14T02:01:49.047Z,4.50
2023-06-14T02:04:41.161Z,4.30
2023-06-14T02:07:33.275Z,4.90
2023-06-14T02:10:25.638Z,4.60
2023-06-14T02:13:17.722Z,4.70
2023-06-14T02:16:10.008Z,4.40
2023-06-14T02:19:02.397Z,5.00
2023-06-14T02:21:54.476Z,5.00
2023-06-14T02:24:46.552Z,5.50
2023-06-14T02:27:38.594Z,5.30
2023-06-14T02:30:30.650Z,5.10
2023-06-14T02:33:23.047Z,5.30
2023-06-14T02:36:15.107Z,4.80
2023-06-14T02:39:07.148Z,4.70
2023-06-14T02:41:59.160Z,5.00
2023-06-14T02:44:52.387Z,4.70
2023-06-14T02:47:44.622Z,4.80
2023-06-14T02:50:36.749Z,4.70
2023-06-14T02:53:28.852Z,4.80
2023-06-14T02:56:23.616Z,5.10
2023-06-14T02:59:16.117Z,4.90
2023-06-14T03:02:08.957Z,4.90
2023-06-14T03:05:02.511Z,4.70
2023-06-14T03:07:55.042Z,4.90
2023-06-14T03:10:47.539Z,5.20
2023-06-14T03:13:39.968Z,4.70
2023-06-14T03:16:32.744Z,5.20
2023-06-14T03:19:24.864Z,5.20
2023-06-14T03:22:17.279Z,4.70
2023-06-14T03:25:11.520Z,4.50
2023-06-14T03:30:54.232Z,4.60
2023-06-14T03:33:46.357Z,4.50
2023-06-14T03:36:38.934Z,5.40
2023-06-14T03:39:31.038Z,5.30
2023-06-14T03:42:23.208Z,5.50
2023-06-14T03:45:15.314Z,5.50
2023-06-14T03:48:10.088Z,5.70
2023-06-14T03:51:03.331Z,6.20
2023-06-14T03:54:17.681Z,5.80
2023-06-14T03:57:09.148Z,5.50
2023-06-14T04:00:01.317Z,5.70
2023-06-14T04:02:54.053Z,6.10
2023-06-14T04:06:06.359Z,5.90
2023-06-14T04:08:58.397Z,5.80
2023-06-14T04:11:41.876Z,7.40
2023-06-14T04:14:34.841Z,11.50
2023-06-14T04:17:27.024Z,6.40
2023-06-14T04:20:19.189Z,5.70
2023-06-14T04:23:19.027Z,6.30
2023-06-14T04:26:11.578Z,6.50
2023-06-14T04:29:03.783Z,6.60
2023-06-14T04:31:59.880Z,6.50
2023-06-14T04:34:54.639Z,6.70
2023-06-14T04:37:46.857Z,6.40
2023-06-14T04:40:43.672Z,6.60
2023-06-14T04:43:39.314Z,8.20
2023-06-14T04:46:33.165Z,7.90
2023-06-14T04:49:27.800Z,7.10
2023-06-14T04:52:22.132Z,7.60
2023-06-14T04:55:15.125Z,6.80
2023-06-14T04:58:07.473Z,6.90
2023-06-14T05:01:00.361Z,7.20
2023-06-14T05:03:52.689Z,6.90
2023-06-14T05:06:45.833Z,7.00
2023-06-14T05:09:38.008Z,8.20
2023-06-14T05:12:30.241Z,7.70
2023-06-14T05:15:26.302Z,8.40
2023-06-14T05:18:18.417Z,7.80
2023-06-14T05:21:10.397Z,7.90
2023-06-14T05:24:02.736Z,7.00
2023-06-14T05:26:54.979Z,6.70
2023-06-14T05:29:47.082Z,12.20
2023-06-14T05:32:39.296Z,9.60
2023-06-14T05:35:31.568Z,8.00
2023-06-14T05:38:23.698Z,6.80
2023-06-14T05:41:16.311Z,5.80
2023-06-14T05:44:08.772Z,7.10
2023-06-14T05:47:00.890Z,7.30
2023-06-14T05:49:53.299Z,7.30
2023-06-14T05:52:45.345Z,7.10
2023-06-14T05:55:38.590Z,6.50
2023-06-14T05:58:31.478Z,9.60
2023-06-14T06:01:23.597Z,8.90
2023-06-14T06:04:15.684Z,6.00
2023-06-14T06:07:08.238Z,8.00
2023-06-14T06:10:00.890Z,6.50
2023-06-14T06:12:53.239Z,7.30
2023-06-14T06:15:45.392Z,13.20
2023-06-14T06:18:37.620Z,7.80
2023-06-14T06:21:29.752Z,6.60
2023-06-14T06:24:21.874Z,7.80
2023-06-14T06:27:14.479Z,8.50
2023-06-14T06:30:07.910Z,10.20
2023-06-14T06:33:00.449Z,10.20
2023-06-14T06:35:52.624Z,8.10
2023-06-14T06:38:44.686Z,5.80
2023-06-14T06:41:38.489Z,6.30
2023-06-14T06:44:30.578Z,11.00
2023-06-14T06:47:22.639Z,5.60
2023-06-14T06:50:14.868Z,5.50
2023-06-14T06:53:07.886Z,4.80
2023-06-14T06:56:00.093Z,6.00
2023-06-14T06:58:37.222Z,3.90
2023-06-14T07:01:30.211Z,3.60
2023-06-14T07:04:22.421Z,6.70
2023-06-14T07:07:14.733Z,4.70
2023-06-14T07:10:08.717Z,4.40
2023-06-14T07:13:00.887Z,3.60
2023-06-14T07:15:54.478Z,9.30
2023-06-14T07:18:46.579Z,3.20
2023-06-14T07:21:39.713Z,2.40
2023-06-14T07:24:32.135Z,6.60
2023-06-14T07:27:24.284Z,7.00
2023-06-14T07:30:16.811Z,3.70
2023-06-14T07:33:09.639Z,2.90
2023-06-14T07:36:01.855Z,2.90
2023-06-14T07:38:53.957Z,8.10
2023-06-14T07:41:46.244Z,12.70
2023-06-14T07:44:38.343Z,3.00
2023-06-14T07:47:30.673Z,2.40
2023-06-14T07:50:22.782Z,3.90
2023-06-14T07:53:14.812Z,3.10
2023-06-14T07:56:07.268Z,2.70
2023-06-14T07:58:59.516Z,14.20
2023-06-14T08:01:51.545Z,5.50
2023-06-14T08:04:43.800Z,3.20
2023-06-14T08:07:35.881Z,2.70
2023-06-14T08:10:11.669Z,2.50
2023-06-14T08:13:03.801Z,2.40
2023-06-14T08:15:56.432Z,2.20
2023-06-14T08:18:29.069Z,1.80
2023-06-14T08:21:21.211Z,5.50
2023-06-14T08:24:15.009Z,4.20
2023-06-14T08:27:07.822Z,2.40
2023-06-14T08:29:59.855Z,2.40
2023-06-14T08:33:02.275Z,2.90
2023-06-14T08:36:02.798Z,2.50
2023-06-14T08:38:54.829Z,3.00
2023-06-14T08:41:49.769Z,2.80
2023-06-14T08:44:42.275Z,2.90
2023-06-14T08:47:41.712Z,2.70
2023-06-14T08:50:37.959Z,3.60
2023-06-14T08:53:20.732Z,9.90
2023-06-14T08:56:02.799Z,3.90
2023-06-14T08:58:55.393Z,5.40
2023-06-14T09:01:59.746Z,3.20
2023-06-14T09:05:01.741Z,3.30
2023-06-14T09:07:55.928Z,9.10
2023-06-14T09:13:39.393Z,3.90
2023-06-14T09:16:34.504Z,2.90
2023-06-14T09:19:27.087Z,4.70
2023-06-14T09:22:20.066Z,3.50
2023-06-14T09:24:57.504Z,3.30
2023-06-14T09:27:50.820Z,4.60
2023-06-14T09:30:42.974Z,3.20
2023-06-14T09:33:36.171Z,2.90
2023-06-14T09:36:29.554Z,2.40
2023-06-14T09:39:21.917Z,2.90
2023-06-14T09:42:21.611Z,2.90
2023-06-14T09:45:20.617Z,4.20
2023-06-14T09:48:31.578Z,3.40
2023-06-14T09:51:26.304Z,3.80
2023-06-14T09:54:22.745Z,3.70
2023-06-14T09:57:16.228Z,6.00
2023-06-14T10:00:12.730Z,3.90
2023-06-14T10:03:39.347Z,3.80
2023-06-14T10:06:45.266Z,3.60
2023-06-14T10:09:38.189Z,3.30
2023-06-14T10:12:30.577Z,4.60
2023-06-14T10:15:26.231Z,5.40
2023-06-14T10:18:33.024Z,4.70
2023-06-14T10:21:40.063Z,4.00
2023-06-14T10:24:35.509Z,2.50
2023-06-14T10:27:27.759Z,2.60
2023-06-14T10:30:28.087Z,4.30
2023-06-14T10:33:20.206Z,4.20
2023-06-14T10:36:28.749Z,4.80
2023-06-14T10:39:21.653Z,5.10
2023-06-14T10:42:14.318Z,5.70
2023-06-14T10:45:07.852Z,2.60
2023-06-14T10:48:03.654Z,3.80
2023-06-14T10:51:04.224Z,3.10
2023-06-14T10:54:01.339Z,3.40
2023-06-14T10:56:55.991Z,3.90
2023-06-14T10:59:49.679Z,3.30
2023-06-14T11:02:55.684Z,4.60
2023-06-14T11:05:54.968Z,5.90
2023-06-14T11:09:22.239Z,5.60
2023-06-14T11:12:15.297Z,3.90
2023-06-14T11:15:09.468Z,4.10
2023-06-14T11:20:54.499Z,3.50
2023-06-14T11:23:53.483Z,3.90
2023-06-14T11:26:46.314Z,3.00
2023-06-14T11:29:38.330Z,2.90
2023-06-14T11:32:30.545Z,3.10
2023-06-14T11:35:25.225Z,2.90
2023-06-14T11:38:17.376Z,3.40
2023-06-14T11:41:09.450Z,3.50
2023-06-14T11:44:02.018Z,3.80
2023-06-14T11:46:54.391Z,5.10
2023-06-14T11:49:46.567Z,5.10
2023-06-14T11:52:40.562Z,4.00
2023-06-14T11:55:32.709Z,3.90
2023-06-14T11:58:24.788Z,4.00
2023-06-14T12:01:20.056Z,5.70
2023-06-14T12:04:12.122Z,4.80
2023-06-14T12:07:16.022Z,6.40
2023-06-14T12:10:12.412Z,7.90
2023-06-14T12:12:46.941Z,6.80
2023-06-14T12:15:39.100Z,7.30
2023-06-14T12:18:13.835Z,7.70
2023-06-14T12:21:07.714Z,5.30
2023-06-14T12:24:00.017Z,4.90
2023-06-14T12:26:44.090Z,6.40
2023-06-14T12:29:36.869Z,5.40
2023-06-14T12:32:29.207Z,6.10
2023-06-14T12:35:11.571Z,5.20
2023-06-14T12:38:04.791Z,5.20
2023-06-14T12:40:56.985Z,5.60
2023-06-14T12:43:49.051Z,5.10
2023-06-14T12:46:49.561Z,6.10
2023-06-14T12:49:43.306Z,3.80
2023-06-14T12:52:36.975Z,3.40
2023-06-14T12:55:33.999Z,4.40
2023-06-14T12:58:26.121Z,3.00
2023-06-14T13:01:18.608Z,4.60
2023-06-14T13:04:11.246Z,2.60
2023-06-14T13:07:03.361Z,3.00
2023-06-14T13:09:55.592Z,11.60
2023-06-14T13:12:47.607Z,4.00
2023-06-14T13:15:39.934Z,3.20
2023-06-14T13:18:32.007Z,3.10
2023-06-14T13:21:24.206Z,3.00
2023-06-14T13:24:16.429Z,4.50
2023-06-14T13:27:09.414Z,3.00
2023-06-14T13:30:01.516Z,2.90
2023-06-14T13:32:53.992Z,3.30
2023-06-14T13:35:46.220Z,3.00
2023-06-14T13:38:38.341Z,3.30
2023-06-14T13:41:34.761Z,2.90
2023-06-14T13:44:26.914Z,2.70
2023-06-14T13:47:18.951Z,3.30
2023-06-14T13:50:11.992Z,3.40
2023-06-14T13:53:04.103Z,4.00
2023-06-14T13:55:56.188Z,3.80
2023-06-14T13:58:48.314Z,2.80
2023-06-14T14:01:40.746Z,3.10
2023-06-14T14:04:32.876Z,3.50
2023-06-14T14:07:24.953Z,2.70
2023-06-14T14:10:17.246Z,3.00
2023-06-14T14:13:09.556Z,3.00
2023-06-14T14:16:01.882Z,3.10
2023-06-14T14:18:54.047Z,3.00
2023-06-14T14:21:28.884Z,2.80
2023-06-14T14:24:20.951Z,3.30
2023-06-14T14:27:13.914Z,3.00
2023-06-14T14:30:06.504Z,2.80
2023-06-14T14:32:49.197Z,2.90
2023-06-14T14:35:31.769Z,3.30
2023-06-14T14:38:13.849Z,3.40
2023-06-14T14:41:06.199Z,3.30
2023-06-14T14:43:59.677Z,3.30
2023-06-14T14:46:37.255Z,3.20
2023-06-14T14:49:20.145Z,3.40
2023-06-14T14:52:23.414Z,3.20
2023-06-14T14:55:16.630Z,3.50
2023-06-14T14:58:09.368Z,3.80
2023-06-14T15:01:01.573Z,3.80
2023-06-14T15:03:59.198Z,3.70
2023-06-14T15:06:52.273Z,3.70
2023-06-14T15:09:44.495Z,4.20
2023-06-14T15:12:36.520Z,3.70
2023-06-14T15:15:28.606Z,4.00
2023-06-14T15:18:21.689Z,3.80
2023-06-14T15:21:13.945Z,3.60
2023-06-14T15:24:06.443Z,3.50
2023-06-14T15:26:43.729Z,3.90
2023-06-14T15:29:35.774Z,3.60
2023-06-14T15:32:27.919Z,3.50
2023-06-14T15:35:20.551Z,3.90
2023-06-14T15:38:12.659Z,3.40
2023-06-14T15:41:04.939Z,3.90
2023-06-14T15:43:56.991Z,3.40
2023-06-14T15:46:50.460Z,3.50
2023-06-14T15:49:44.320Z,3.00
2023-06-14T15:52:36.566Z,2.50
2023-06-14T15:55:28.602Z,2.40
2023-06-14T15:58:20.631Z,2.70
2023-06-14T16:01:12.682Z,2.30
2023-06-14T16:04:04.907Z,2.50
2023-06-14T16:06:57.103Z,2.60
2023-06-14T16:09:29.101Z,2.70
2023-06-14T16:12:22.313Z,2.20
2023-06-14T16:15:15.976Z,2.80
2023-06-14T16:18:08.183Z,3.60
2023-06-14T16:21:00.276Z,3.90
2023-06-14T16:23:52.575Z,4.20
2023-06-14T16:26:44.676Z,3.80
2023-06-14T16:29:36.875Z,3.60
2023-06-14T16:32:29.135Z,3.60
2023-06-14T16:35:21.344Z,4.00
2023-06-14T16:38:13.628Z,4.10
2023-06-14T16:41:06.347Z,4.10
2023-06-14T16:43:58.439Z,3.90
2023-06-14T16:46:50.515Z,3.70
2023-06-14T16:49:42.676Z,3.50
2023-06-14T16:52:34.812Z,3.40
2023-06-14T16:55:26.864Z,4.10
2023-06-14T16:58:18.929Z,3.40
2023-06-14T17:01:11.142Z,3.50
2023-06-14T17:04:03.385Z,3.30
2023-06-14T17:06:55.620Z,3.30
2023-06-14T17:09:49.667Z,3.60
2023-06-14T17:12:42.197Z,3.20
2023-06-14T17:15:34.302Z,3.30
2023-06-14T17:18:26.397Z,4.10
2023-06-14T17:21:18.621Z,3.40
2023-06-14T17:28:20.694Z,3.90
2023-06-14T17:31:30.248Z,4.20
2023-06-14T17:34:22.395Z,3.60
2023-06-14T17:37:14.498Z,4.00
2023-06-14T17:40:08.052Z,3.40
2023-06-14T17:43:01.672Z,3.80
2023-06-14T17:45:53.774Z,4.40
2023-06-14T17:48:45.907Z,3.80
2023-06-14T17:51:38.178Z,4.10
2023-06-14T17:54:30.364Z,4.20
2023-06-14T17:57:22.431Z,3.90
2023-06-14T18:00:16.830Z,3.80
2023-06-14T18:03:09.305Z,5.10
2023-06-14T18:06:01.671Z,3.70
2023-06-14T18:08:54.060Z,4.00
2023-06-14T18:11:46.176Z,4.20
2023-06-14T18:14:38.294Z,4.30
2023-06-14T18:17:30.422Z,5.20
2023-06-14T18:20:23.042Z,5.40
2023-06-14T18:23:15.060Z,5.30
2023-06-14T18:26:07.157Z,5.00
2023-06-14T18:28:59.449Z,5.20
2023-06-14T18:31:51.569Z,5.30
2023-06-14T18:34:43.659Z,5.20
2023-06-14T18:37:35.809Z,5.20
2023-06-14T18:40:26.959Z,5.10
2023-06-14T18:43:19.062Z,5.00
2023-06-14T18:46:13.034Z,4.90
2023-06-14T18:49:05.252Z,4.60
2023-06-14T18:51:57.384Z,4.30
2023-06-14T18:54:49.512Z,4.50
2023-06-14T18:57:41.814Z,5.10
2023-06-14T19:00:34.230Z,6.00
2023-06-14T19:03:26.495Z,5.50
2023-06-14T19:06:18.707Z,5.50
2023-06-14T19:09:10.932Z,6.10
2023-06-14T19:12:03.160Z,6.70
2023-06-14T19:14:55.416Z,6.10
2023-06-14T19:18:00.516Z,6.80
2023-06-14T19:20:52.792Z,6.20
2023-06-14T19:23:45.778Z,6.60
2023-06-14T19:26:37.968Z,6.70
2023-06-14T19:29:31.320Z,5.40
2023-06-14T19:32:23.756Z,5.40
2023-06-14T19:35:16.389Z,6.00
2023-06-14T19:38:08.542Z,6.20
2023-06-14T19:41:00.612Z,6.40
2023-06-14T19:43:55.118Z,6.10
2023-06-14T19:46:47.135Z,6.20
2023-06-14T19:49:39.168Z,6.00
2023-06-14T19:52:31.269Z,6.00
2023-06-14T19:55:23.376Z,6.40
2023-06-14T19:58:15.599Z,6.10
2023-06-14T20:01:08.545Z,6.80
2023-06-14T20:04:00.702Z,5.90
2023-06-14T20:06:56.671Z,6.30
2023-06-14T20:09:48.713Z,5.40
2023-06-14T20:12:42.492Z,5.50
2023-06-14T20:15:34.535Z,6.80
2023-06-14T20:18:26.620Z,6.70
2023-06-14T20:21:18.746Z,6.30
2023-06-14T20:24:11.053Z,6.80
2023-06-14T20:27:03.237Z,6.70
2023-06-14T20:29:55.303Z,6.90
2023-06-14T20:32:47.458Z,6.20
2023-06-14T20:35:40.689Z,6.30
2023-06-14T20:38:32.756Z,6.70
2023-06-14T20:41:24.786Z,5.70
2023-06-14T20:44:17.294Z,5.40
2023-06-14T20:46:58.272Z,5.40
2023-06-14T20:49:50.418Z,6.60
2023-06-14T20:52:42.823Z,6.70
2023-06-14T20:55:18.769Z,6.50
2023-06-14T20:58:11.019Z,6.80
2023-06-14T21:00:52.513Z,6.20
2023-06-14T21:03:44.860Z,6.90
2023-06-14T21:06:37.843Z,8.00
2023-06-14T21:09:30.571Z,7.40
2023-06-14T21:12:22.688Z,7.30
2023-06-14T21:15:12.616Z,6.80
2023-06-14T21:18:04.868Z,6.40
2023-06-14T21:20:57.125Z,6.00
2023-06-14T21:23:49.197Z,7.20
2023-06-14T21:26:41.332Z,7.80
2023-06-14T21:29:20.644Z,7.10
2023-06-14T21:32:13.243Z,7.00
2023-06-14T21:35:06.349Z,7.50
2023-06-14T21:37:58.811Z,7.50
2023-06-14T21:40:50.889Z,8.50
2023-06-14T21:43:43.349Z,8.10
2023-06-14T21:46:35.837Z,7.40
2023-06-14T21:49:28.179Z,7.10
2023-06-14T21:52:20.390Z,7.40
2023-06-14T21:55:12.630Z,6.90
2023-06-14T21:58:04.684Z,7.60
2023-06-14T22:00:56.931Z,7.90
2023-06-14T22:03:49.121Z,8.70
2023-06-14T22:06:44.740Z,8.20
2023-06-14T22:09:36.785Z,7.70
2023-06-14T22:12:29.717Z,8.60
2023-06-14T22:15:22.214Z,8.00
2023-06-14T22:18:14.513Z,8.90
2023-06-14T22:21:07.840Z,8.80
2023-06-14T22:23:59.914Z,8.10
2023-06-14T22:26:57.613Z,7.70
2023-06-14T22:29:50.302Z,7.50
2023-06-14T22:32:42.571Z,8.00
2023-06-14T22:35:25.521Z,9.30
2023-06-14T22:38:20.561Z,7.80
2023-06-14T22:41:13.708Z,10.10
2023-06-14T22:44:06.344Z,16.40
2023-06-14T22:47:01.100Z,16.00
2023-06-14T22:50:08.124Z,13.60
2023-06-14T22:53:20.751Z,9.70
2023-06-14T22:56:14.334Z,8.70
2023-06-14T22:59:06.361Z,8.30
2023-06-14T23:01:58.628Z,8.30
2023-06-14T23:04:50.891Z,11.80
2023-06-14T23:07:43.665Z,12.40
2023-06-14T23:10:37.846Z,13.60
2023-06-14T23:13:30.081Z,10.40
2023-06-14T23:16:23.531Z,11.10
2023-06-14T23:19:16.880Z,10.80
2023-06-14T23:22:13.203Z,9.60
2023-06-14T23:25:07.545Z,9.50
2023-06-14T23:27:59.797Z,8.50
2023-06-14T23:30:52.081Z,7.40
2023-06-14T23:33:44.243Z,7.70
2023-06-14T23:36:36.251Z,7.50
2023-06-14T23:39:28.298Z,8.60
2023-06-14T23:42:21.609Z,8.90
2023-06-14T23:45:14.331Z,9.10
2023-06-14T23:48:07.077Z,8.60
2023-06-14T23:50:59.226Z,8.70
2023-06-14T23:53:53.584Z,9.30
2023-06-14T23:56:48.967Z,9.30
2023-06-14T23:59:41.136Z,8.20
